Terminal Aerodrome Forecast
Issued by NWS Wilmington, OH

Home | Current Version | Previous Version | Text Only | Print | Product List | Glossary On
Versions: 1 2 3 4 5 6 7 8 9 10 11 12 13 14 15 16 17 18 19 20 21 22 23 24
555
FTUS41 KILN 201135
TAFCVG
TAF
KCVG 201135Z 2012/2118 22010KT P6SM BKN250
     FM201600 23013G18KT P6SM BKN025
     FM202100 21008KT P6SM OVC014
      TEMPO 2102/2106 OVC009
     FM211000 19005KT P6SM OVC020=

USA.gov is the U.S. government's official web portal to all federal, state and local government web resources and services.